Bookmark and Share
Track history (hours):
 

Roe

Last reported at 2013-May-27 14:16 UTC. Time now 2014-Apr-24 11:32 UTC.
Position N 31°22' E 032°20'.
Warning: this ship's position is months out of date.

Length 188 m; draft 9.8 m.

Type: Cargo ship. MMSI: 356912000.

NotesDate/timePositionNaut miles runAvg speedWind from/ knotsBaromVisibWave heightAir tempDewpointWater temp
2013-May-27 14:16N 31°22' E 032°20'97 5.8
2013-May-26 21:33N 32°27' E 030°55'1111.2
2013-May-26 20:33N 32°34' E 030°45'1111.2
2013-May-26 19:33N 32°41' E 030°35'1111.5
2013-May-26 18:34N 32°48' E 030°24'1211.6
2013-May-26 17:33N 32°55' E 030°13'4711.9
2013-May-26 13:33N 33°25' E 029°29'2612.3
2013-May-26 11:24N 33°41' E 029°04'10511.9
2013-May-26 02:33N 34°47' E 027°25'5211.8
2013-May-25 22:09N 35°19' E 026°35'1912.0
2013-May-25 20:33N 35°33' E 026°18'1212.0
2013-May-25 19:33N 35°40' E 026°07'1211.9
2013-May-25 18:33N 35°48' E 025°56'1211.7
2013-May-25 17:33N 35°56' E 025°45'1211.8
2013-May-25 16:33N 36°04' E 025°34'1211.7
2013-May-25 15:33N 36°11' E 025°23'1211.9
2013-May-25 14:33N 36°19' E 025°12'1212.0
2013-May-25 13:33N 36°27' E 025°00'1211.6
2013-May-25 12:33N 36°34' E 024°50'1111.1
2013-May-25 11:33N 36°44' E 024°43'1111.5
2013-May-25 10:34N 36°54' E 024°35'1211.6
2013-May-25 09:33N 37°03' E 024°25'1111.5
2013-May-25 08:33N 37°12' E 024°16'1311.4
2013-May-25 07:24N 37°22' E 024°06'1211.6
2013-May-25 06:23N 37°30' E 023°56'2111.6
2013-May-25 04:33N 37°46' E 023°38'9 9.1
2013-May-25 03:33N 37°53' E 023°30'0 0.2
2013-May-25 02:31N 37°53' E 023°31'0 0.0
2013-May-25 01:31N 37°53' E 023°31'0 0.0
2013-May-25 00:31N 37°53' E 023°31'0 0.0
2013-May-24 23:31N 37°53' E 023°31'0 0.0
2013-May-24 22:31N 37°53' E 023°31'0 0.0
2013-May-24 21:31N 37°53' E 023°31'3 3.1
2013-May-24 20:33N 37°51' E 023°34'9 9.4
2013-May-24 19:33N 37°45' E 023°43'1110.6
2013-May-24 18:32N 37°38' E 023°53'1110.7
2013-May-24 17:33N 37°38' E 024°07'1211.0
2013-May-24 16:30N 37°44' E 024°19'1010.6
2013-May-24 15:33N 37°51' E 024°28'  
2013-May-18 13:23N 38°27' E 025°33'5512.9
2013-May-18 09:05N 37°55' E 024°35'712.4
2013-May-18 08:31N 37°51' E 024°28'1712.2
2013-May-18 07:06N 37°38' E 024°13'712.4
2013-May-18 06:33N 37°33' E 024°08'1412.3
2013-May-18 05:27N 37°22' E 023°58'4212.6
2013-May-18 02:09N 36°48' E 023°28'2112.6
2013-May-18 00:30N 36°29' E 023°18'  

Dump ship's entire track history

sailing weather and tide predictions

Roe — 3FVR3 — position and weather